Terminal Aerodrome Forecast
Issued by NWS Louisville, KY

Home | Current Version | Previous Version | Text Only | Print | Product List | Glossary On
Versions: 1 2 3 4 5 6 7 8 9 10 11 12 13
000
FTUS43 KLMK 271700
TAFBWG
TAF
KBWG 271720Z 2718/2818 22012G22KT P6SM FEW250
     FM280000 18008KT P6SM SCT250
     FM280600 19009KT P6SM BKN250 WS017/20035KT
     FM281700 21010KT P6SM SHRA BKN040=

USA.gov is the U.S. government's official web portal to all federal, state and local government web resources and services.